Tiempo atmosférico en la estación meteorológica de Salamanca, Salamanca (775 m.)



Fecha
DESCASC
Temp. máxima en grados centígrados (hora)
DESCASC
Temp. mínima en grados centígrados (hora)
DESCASC
Temp. media en grados centígrados
DESCASC
Racha de viento máxima en m/sg (hora)
DESCASC
Velocidad máxima media en intervalos de 10 minutos(hora)
DESCASC
Precipitaciones diarias en mm
DESCASC
Precipitaciones de 00:00 a 06:00 en mm
DESCASC
Precipitaciones de 06:00 a 12:00 en mm
DESCASC
Precipitaciones de 12:00 a 18:00 en mm
DESCASC
Precipitaciones de 18:00 a 24:00 en mm
DESCASC
22-04-2019 20 (17:10) 4.6 (08:00) 12.3 9.72 (18:10) 5.28 (17:50) 0 0 0 0 0
21-04-2019 17.1 (14:10) 7.7 (07:30) 12.4 10.56 (11:40) 4.72 (11:20) 0 0 0 0 0
20-04-2019 22.8 (16:40) 9.5 (07:20) 16.1 12.22 (13:40) 5 (14:10) 0 0 0 0 0
19-04-2019 17 (16:20) 8.4 (08:00) 12.7 11.94 (20:30) 4.72 (20:20) 1.2 1.2 0 0 0
18-04-2019 16.2 (16:50) 7.7 (00:00) 12 9.17 (02:20) 4.17 (17:30) 0.6 0 0 0.1 0.5
17-04-2019 22 (16:00) 8.2 (00:00) 15.1 15.83 (16:30) 7.22 (17:00) 0.7 0 0 0 0.7
16-04-2019 20.8 (17:50) 3.4 (00:00) 12.1 8.06 (16:00) 3.06 (17:40) 0.1 0.1 0 0 0
15-04-2019 20.7 (14:40) 10.1 (00:00) 15.4 15 (16:50) 7.22 (12:50) 0.5 0 0 0.1 0.4
14-04-2019 20.8 (16:40) 11.2 (00:00) 16 6.39 (16:00) 2.78 (16:50) 0 0 0 0 0
13-04-2019 21.6 (17:20) 4.5 (00:00) 13.1 8.06 (21:00) 3.33 (21:10) 0 0 0 0 0
12-04-2019 18 (18:20) 1.9 (00:00) 9.9 5 (17:30) 1.94 (10:10) 0 0 0 0 0
11-04-2019 15 (17:40) 1.2 (00:00) 8.1 6.67 (17:10) 2.22 (13:10) 0 0 0 0 0
10-04-2019 13.8 (16:00) 5.6 (00:00) 9.7 9.72 (15:10) 5.28 (12:10) 5.6 0 0 5.2 0.4
09-04-2019 13.1 (15:50) 4 (00:00) 8.6 13.33 (14:20) 5.83 (15:20) 3.3 0 3 0 0.3
08-04-2019 14.8 (17:30) 6.8 (00:00) 10.8 10.56 (18:20) 5.56 (18:20) 1.3 1.2 0 0.1 0
07-04-2019 10.7 (14:50) 3.4 (00:00) 7 9.72 (01:20) 4.44 (01:20) 1.2 0 0 0.8 0.4
06-04-2019 9.8 (18:30) 3.2 (00:00) 6.5 16.39 (12:40) 7.5 (14:30) 2.1 0 0.5 1.5 0.1
05-04-2019 10 (18:20) 2.7 (00:00) 6.4 12.22 (18:50) 6.11 (18:50) 2.9 0 1.4 0.6 0.9
04-04-2019 13.2 (17:10) -0.6 (-00:0) 6.3 10.28 (18:40) 4.72 (18:40) 0.1 0 0 0 0.1
03-04-2019 13.7 (16:20) 5.4 (23:50) 9.5 9.72 (19:00) 5 (19:10) 0 0 0 0 0
02-04-2019 19.2 (17:20) 9.4 (00:00) 14.3 10 (15:50) 5 (18:30) 0 0 0 0 0
01-04-2019 19.9 (16:50) 4.3 (00:00) 12.1 8.33 (21:10) 4.72 (21:30) 0 0 0 0 0
31-03-2019 19.7 (14:50) 3.3 (00:00) 11.5 7.78 (14:10) 3.33 (18:10) 0 0 0 0 0
30-03-2019 20.4 (14:30) 3.2 (00:00) 11.8 5.28 (17:10) 2.78 (17:10) 0 0 0 0 0
29-03-2019 20.6 (16:30) 2.3 (00:00) 11.5 5.83 (13:00) 2.78 (13:00) 0 0 0 0 0
28-03-2019 20.2 (17:10) 2.3 (00:00) 11.3 6.39 (18:40) 3.33 (09:20) 0 0 0 0 0
27-03-2019 20 (17:30) 2 (00:00) 11 8.33 (16:40) 3.89 (03:10) 0 0 0 0 0
26-03-2019 20.8 (17:10) 1.4 (00:00) 11.1 11.67 (21:10) 5 (11:30) 0 0 0 0 0
25-03-2019 19.5 (15:20) 5.2 (00:00) 12.3 9.17 (16:00) 4.17 (16:00) 0 0 0 0 0

Gráficas

Temp. máximas Temp. mínimas Temp. medias Precipitaciones Rachas de viento máximas Velocidades máximas media en intervalos de 10 minutos

Datos horarios

Fecha y hora oficial Temperatura (ºC) Velocidad del viento (km/h) Dirección del viento Racha (km/h) Dirección de racha Precipitación (mm) Presión (hPa) Tendencia (hPa) Humedad (%)
2019-04-23 23:00:00 5 7 Sur 18 Oeste 0 914.4 1.9 85
2019-04-23 22:00:00 5.9 8 Sudoeste 15 Sudoeste 0 913.6 1.7 84
2019-04-23 21:00:00 6.6 6 Sudoeste 25 Oeste 0 913 1.4 85
2019-04-23 20:00:00 6.7 9 Oeste 31 Oeste 0.5 912.5 1.8 87
2019-04-23 19:00:00 6.3 8 Sur 25 Sudoeste 0.2 911.9 0.8 87
2019-04-23 18:00:00 6.1 8 Oeste 35 Oeste 0.6 911.6 1.5 86
2019-04-23 17:00:00 8.7 10 Sudoeste 29 Sur 0.6 910.7 0.7 78
2019-04-23 16:00:00 6.1 9 Sur 39 Sudoeste 0.5 911.1 1.1 90
2019-04-23 15:00:00 10.1 9 Sur 40 Sur 0.2 910.1 0 73
2019-04-23 14:00:00 9.3 15 Sur 33 Sudoeste 0.2 910 0.1 72
2019-04-23 13:00:00 9.9 13 Sur 27 Sudoeste 0 910 0.2 60
2019-04-23 12:00:00 8.8 9 Sudoeste 30 Sudoeste 0 910.1 0.6 65
2019-04-23 11:00:00 7.6 11 Sudoeste 31 Sudoeste 0 909.9 1 76
2019-04-23 10:00:00 6.2 9 Sudoeste 19 Sudoeste 0 909.8 1.2 85
2019-04-23 09:00:00 5.7 12 Oeste 25 Oeste 0 909.5 0.6 83
2019-04-23 08:00:00 6 11 Sudoeste 23 Sudoeste 0.4 908.9 -0.2 94
2019-04-23 07:00:00 6.2 9 Sudoeste 16 Sudoeste 0.6 908.6 -0.5 95
2019-04-23 06:00:00 6.5 5 Sudoeste 19 Oeste 0.8 908.9 -0.3 94
2019-04-23 05:00:00 6.7 8 Oeste 21 Oeste 0.7 909.1 -0.3 93
2019-04-23 04:00:00 7.3 10 Oeste 32 Oeste 0.8 909.1 -0.7 90
2019-04-23 03:00:00 11.6 9 Sur 19 Sur 0 909.2 -0.9 71
2019-04-23 02:00:00 11.9 12 Sur 29 Sudoeste 0 909.4 -1.1 71
2019-04-23 01:00:00 12.4 11 Sur 25 Sur 0.1 909.8 -0.6 73
2019-04-23 00:00:00 12.6 5 Sudoeste 18 Sudoeste 0 910.1 -0.2 80
2019-04-22 23:00:00 13.4 6 Sudoeste 19 Sudoeste 0 910.5 -0.1 67
2019-04-22 22:00:00 14.2 6 Sudoeste 19 Sudoeste 0 910.4 -0.7 59
2019-04-22 21:00:00 14.8 7 Oeste 29 Sudoeste 0 910.3 -1.2 55
2019-04-22 20:00:00 16.4 14 Sur 32 Sudoeste 0 910.6 -1.1 46
2019-04-22 19:00:00 16.6 14 Sur 35 Sur 0 911.1 -1.4 49
2019-04-22 18:00:00 17.6 14 Sur 34 Sur 0 911.5 -1.8 46
2019-04-22 17:00:00 19.8 9 Sudoeste 33 Sudoeste 0 911.7 -2.3 39
2019-04-22 16:00:00 18.1 9 Sudoeste 28 Oeste 0 912.5 -2.6 42
2019-04-22 15:00:00 17.7 11 Sudoeste 23 Sudoeste 0 913.3 -2.7 41
2019-04-22 14:00:00 17.4 7 Oeste 23 Oeste 0 914 -2.6 42
2019-04-22 13:00:00 16.9 4 Sudeste 15 Sur 0 915.1 -1.9 46
2019-04-22 12:00:00 15.9 3 Sudeste 13 Este 0 916 -1.5 50
2019-04-22 11:00:00 12.9 2 Sur 10 Sudoeste 0 916.6 -0.8 60
2019-04-22 10:00:00 9.9 0 Calma 7 Sudoeste 0 917 -0.6 75
2019-04-22 09:00:00 6.6 0 Calma 5 Este 0 917.5 -0.4 85
2019-04-22 08:00:00 4.7 3 Sudoeste 6 Oeste 0 917.4 -1.2 86
2019-04-22 07:00:00 5.2 0 Calma 4 Sudoeste 0 917.6 -1.7 86
2019-04-22 06:00:00 5.8 2 Sudoeste 6 Sudoeste 0 917.9 -2.1 84
2019-04-22 05:00:00 6.5 3 Sudoeste 6 Sudoeste 0 918.6 -2.3 81
2019-04-22 04:00:00 7.8 2 Sudoeste 4 Este 0 919.3 -1.8 78
2019-04-22 03:00:00 9.2 0 Calma 7 Este 0 920 -1.5 73
2019-04-22 02:00:00 9.3 2 Este 8 Nordeste 0 920.9 -0.7 70
2019-04-22 01:00:00 10.5 3 Este 7 Nordeste 0 921.1 -0.5 66
2019-04-22 00:00:00 11.2 2 Este 15 Nordeste 0 921.5 0.1 61
2019-04-21 23:00:00 12.6 5 Nordeste 11 Nordeste 0 921.6 0.8 56
2019-04-21 22:00:00 12.8 4 Nordeste 15 Nordeste 0 921.6 0.3 54
2019-04-21 21:00:00 13.9 7 Nordeste 23 Nordeste 0 921.4 -0.1 50
2019-04-21 20:00:00 15 12 Nordeste 26 Nordeste 0 920.8 -1.1 48
2019-04-21 19:00:00 15.4 11 Nordeste 32 Nordeste 0 921.3 -1.5 47
2019-04-21 18:00:00 16 13 Nordeste 31 Nordeste 0 921.5 -2 45
2019-04-21 17:00:00 16.4 11 Nordeste 31 Nordeste 0 921.9 -2 45
2019-04-21 16:00:00 16.3 10 Nordeste 33 Nordeste 0 922.8 -1.9 45
2019-04-21 15:00:00 15.7 10 Nordeste 30 Este 0 923.5 -1.8 46
2019-04-21 14:00:00 16.5 11 Nordeste 31 Nordeste 0 923.9 -1.7 46
2019-04-21 13:00:00 15.6 12 Nordeste 35 Nordeste 0 924.7 -1.2 49
2019-04-21 12:00:00 14.3 12 Nordeste 38 Este 0 925.3 -1.1 53
2019-04-21 11:00:00 13.6 12 Nordeste 30 Nordeste 0 925.6 -0.6 59
2019-04-21 10:00:00 10.8 7 Nordeste 21 Nordeste 0 925.9 0.1 70
2019-04-21 09:00:00 9.1 9 Nordeste 21 Este 0 926.4 0.4 78
2019-04-21 08:00:00 8.3 6 Nordeste 20 Nordeste 0 926.2 -0.2 80
2019-04-21 07:00:00 8.2 5 Nordeste 15 Nordeste 0 925.8 -0.7 80
2019-04-21 06:00:00 8.7 2 Este 12 Este 0 926 -1.1 76
2019-04-21 05:00:00 9.5 8 Nordeste 19 Nordeste 0 926.4 -0.9 73
2019-04-21 04:00:00 10.7 12 Nordeste 20 Norte 0 926.5 -1.2 66
2019-04-21 03:00:00 11.3 5 Nordeste 25 Nordeste 0 927.1 -0.7 63
2019-04-21 02:00:00 11.9 8 Nordeste 18 Nordeste 0 927.3 -0.5 61
2019-04-21 01:00:00 12.8 8 Nordeste 27 Nordeste 0 927.7 0.3 53
2019-04-21 00:00:00 14.3 14 Nordeste 37 Nordeste 0 927.8 0.6 46
2019-04-20 23:00:00 15.6 11 Nordeste 27 Nordeste 0 927.8 0.8 41
2019-04-20 22:00:00 17 8 Nordeste 24 Nordeste 0 927.4 0.3 37
2019-04-20 21:00:00 19 8 Nordeste 35 Nordeste 0 927.2 -0.2 35
2019-04-20 20:00:00 20.9 11 Nordeste 35 Nordeste 0 927 -0.8 34
2019-04-20 19:00:00 21.7 13 Nordeste 34 Norte 0 927.1 -1.5 34
2019-04-20 18:00:00 22.6 12 Nordeste 38 Nordeste 0 927.4 -1.5 33
2019-04-20 17:00:00 22.1 14 Nordeste 35 Nordeste 0 927.8 -1.7 32
2019-04-20 16:00:00 21.6 13 Nordeste 36 Nordeste 0 928.6 -1.4 33
2019-04-20 15:00:00 21.2 13 Nordeste 42 Nordeste 0 928.9 -1.7 33
2019-04-20 14:00:00 20.9 14 Nordeste 44 Norte 0 929.5 -1.1 33
2019-04-20 13:00:00 19.3 14 Nordeste 32 Nordeste 0 930 -0.5 39
2019-04-20 12:00:00 17.2 16 Nordeste 38 Nordeste 0 930.6 0.3 47
2019-04-20 11:00:00 14.9 17 Nordeste 36 Nordeste 0 930.6 -0.1 54
2019-04-20 10:00:00 13.5 10 Nordeste 31 Nordeste 0 930.5 0.4 62
2019-04-20 09:00:00 10.8 8 Nordeste 22 Nordeste 0 930.3 0.1 73
2019-04-20 08:00:00 9.5 5 Este 19 Nordeste 0 930.7 0.1 73
2019-04-20 07:00:00 9.8 8 Nordeste 19 Este 0 930.1 -0.8 70
2019-04-20 06:00:00 10.2 6 Nordeste 26 Nordeste 0 930.2 -0.6 68
2019-04-20 05:00:00 10.7 9 Nordeste 23 Nordeste 0 930.6 -0.6 69
2019-04-20 04:00:00 11 9 Nordeste 20 Este 0 930.9 -0.1 68
2019-04-20 03:00:00 11.2 11 Nordeste 22 Nordeste 0 930.8 0 67
2019-04-20 02:00:00 11.5 7 Nordeste 32 Nordeste 0 931.2 0.8 67
2019-04-20 01:00:00 11.9 8 Nordeste 28 Este 0 931 1 68
2019-04-20 00:00:00 12.8 12 Nordeste 31 Nordeste 0 930.8 1.4 66
2019-04-19 23:00:00 13.1 12 Nordeste 28 Este 0 930.4 1.4 69
2019-04-19 22:00:00 12.7 5 Nordeste 22 Nordeste 0 930 1.8 74
2019-04-19 21:00:00 12.8 10 Nordeste 43 Este 0 929.4 1.5 73
2019-04-19 20:00:00 13.1 13 Nordeste 34 Nordeste 0 929 0.9 68
2019-04-19 19:00:00 14.7 15 Nordeste 35 Nordeste 0 928.2 0.2 58
2019-04-19 18:00:00 15.7 13 Nordeste 27 Este 0 927.9 -0.3 50
2019-04-19 17:00:00 15.2 11 Nordeste 35 Este 0 928.1 -0.2 49
2019-04-19 16:00:00 16.3 13 Este 36 Nordeste 0 928 -0.1 48
2019-04-19 15:00:00 15 10 Nordeste 26 Nordeste 0 928.2 0.4 53
2019-04-19 14:00:00 13.6 10 Nordeste 32 Este 0 928.3 1.3 59
2019-04-19 13:00:00 13.5 12 Nordeste 32 Nordeste 0 928.1 1.5 62
2019-04-19 12:00:00 13.3 14 Nordeste 30 Nordeste 0 927.8 1.8 67
2019-04-19 11:00:00 12.5 13 Nordeste 28 Nordeste 0 927 1.4 74
2019-04-19 10:00:00 10.9 12 Nordeste 22 Nordeste 0 926.6 1.8 83
2019-04-19 09:00:00 9.5 0 Calma 9 Nordeste 0 926 1.5 94
2019-04-19 08:00:00 8.4 0 Calma 8 Este 0 925.6 1.4 94
2019-04-19 07:00:00 8.8 0 Calma 8 Sur 0 924.8 0.4 94
2019-04-19 06:00:00 8.6 5 Sur 14 Sudoeste 0 924.5 -0.1 95
2019-04-19 05:00:00 8.9 5 Sudoeste 13 Sur 0.4 924.2 -0.7 97
2019-04-19 04:00:00 8.9 6 Sudoeste 13 Sur 0.7 924.4 -0.9 96
2019-04-19 03:00:00 9 4 Sudoeste 14 Sudoeste 0.1 924.6 -0.9 94
2019-04-19 02:00:00 9.2 5 Sudoeste 10 Sudoeste 0 924.9 -0.5 91
2019-04-19 01:00:00 9.6 5 Sudoeste 12 Noroeste 0 925.3 0.3 90
2019-04-19 00:00:00 10.2 3 Noroeste 13 Nordeste 0.3 925.5 1.1 85
2019-04-18 23:00:00 10.2 3 Nordeste 16 Nordeste 0.2 925.4 1.5 81
2019-04-18 22:00:00 11.4 4 Nordeste 13 Nordeste 0 925 1.4 70
2019-04-18 21:00:00 12 3 Nordeste 18 Nordeste 0 924.4 1 65
2019-04-18 20:00:00 12.9 8 Nordeste 22 Nordeste 0 923.9 0.8 60
2019-04-18 19:00:00 12.7 7 Este 21 Este 0 923.6 -0.1 68
2019-04-18 18:00:00 13 10 Este 32 Nordeste 0 923.4 -0.5 62
2019-04-18 17:00:00 15.3 9 Nordeste 23 Este 0 923.1 -1.3 50
2019-04-18 16:00:00 14.5 5 Este 13 Nordeste 0 923.7 -1.1 54
2019-04-18 15:00:00 13.3 5 Este 19 Este 0.1 923.9 -1.1 66
2019-04-18 14:00:00 13.1 6 Nordeste 18 Nordeste 0 924.4 -0.7 62
2019-04-18 13:00:00 12.6 4 Nordeste 14 Nordeste 0 924.8 -0.2 64
2019-04-18 12:00:00 12.2 0 Calma 10 Oeste 0 925 0.2 66
2019-04-18 11:00:00 11.3 4 Sudoeste 12 Sudoeste 0 925.1 0.8 73
2019-04-18 10:00:00 10.5 4 Sudeste 9 Este 0 925 1.2 83
2019-04-18 09:00:00 8.4 3 Este 6 Este 0 924.8 1.5 89
2019-04-18 08:00:00 7.7 3 Sur 7 Sur 0 924.3 0.9 89
2019-04-18 07:00:00 8.2 0 Calma 12 Sudoeste 0 923.8 0.3 88
2019-04-18 06:00:00 8.7 0 Calma 13 Sur 0 923.3 -0.3 89
2019-04-18 05:00:00 8.9 5 Sur 19 Sur 0 923.4 -0.3 88
2019-04-18 04:00:00 9.2 7 Sur 17 Sudoeste 0 923.5 0 86
2019-04-18 03:00:00 9.7 7 Sur 33 Sur 0 923.6 0.6 87
2019-04-18 02:00:00 9.9 9 Sur 27 Sudoeste 0 923.7 1.4 86
2019-04-18 01:00:00 10 12 Sur 31 Sur 0 923.5 1.6 86
2019-04-18 00:00:00 10.2 8 Sur 30 Sudeste 0 923 1.6 86
2019-04-17 23:00:00 10.4 10 Sur 25 Sudeste 0.3 922.3 2.2 86
2019-04-17 22:00:00 11.2 10 Sur 22 Sudoeste 0.3 921.9 2.7 88
2019-04-17 21:00:00 12.5 12 Sudoeste 41 Sur 0.1 921.4 2.1 81
2019-04-17 20:00:00 17.2 14 Sur 45 Este 0 920.1 0.3 46
2019-04-17 19:00:00 18.4 14 Sudeste 40 Sudeste 0 919.2 -0.8 41
2019-04-17 18:00:00 19.8 18 Sudeste 51 Sur 0 919.3 -1 37
2019-04-17 17:00:00 19.8 26 Sur 57 Sur 0 919.8 -1.1 37
2019-04-17 16:00:00 21.7 10 Sudeste 34 Sudeste 0 920 -1.4 34
2019-04-17 15:00:00 19.5 14 Sur 28 Sudoeste 0 920.3 -1.4 38
2019-04-17 14:00:00 18.7 14 Sur 34 Sur 0 920.9 -0.6 39
2019-04-17 13:00:00 18.9 14 Sur 32 Sur 0 921.4 0 41
2019-04-17 12:00:00 18.1 11 Sur 28 Sudoeste 0 921.7 0.1 45
2019-04-17 11:00:00 16.8 13 Sudoeste 24 Sudoeste 0 921.5 0.1 49
2019-04-17 10:00:00 13.7 3 Este 6 Este 0 921.4 0 64
2019-04-17 09:00:00 10 2 Sudoeste 11 Sudoeste 0 921.6 0.1 77
2019-04-17 08:00:00 8.2 0 Calma 10 Nordeste 0 921.4 -0.4 84
2019-04-17 07:00:00 8.8 4 Este 8 Nordeste 0 921.4 -0.6 81
2019-04-17 06:00:00 9.5 3 Este 8 Sudeste 0 921.5 -1 79
2019-04-17 05:00:00 11 0 Calma 8 Sudeste 0 921.8 -1 71
2019-04-17 04:00:00 11.1 3 Nordeste 7 Nordeste 0 922 -1.8 70
2019-04-17 03:00:00 11.1 0 Calma 10 Nordeste 0 922.5 -2.3 70
2019-04-17 02:00:00 11 3 Este 12 Nordeste 0 922.8 -2.1 70
2019-04-17 01:00:00 11.3 4 Este 13 Nordeste 0 923.8 -1.2 68
2019-04-17 00:00:00 12.1 3 Este 5 Este 0 924.8 -0.2 63
2019-04-16 23:00:00 13.5 3 Este 6 Este 0 924.9 0.2 55
2019-04-16 22:00:00 15.5 2 Sudoeste 10 Sur 0 925 -0.1 44
2019-04-16 21:00:00 16.8 6 Sur 15 Sudoeste 0 925 -0.3 40
2019-04-16 20:00:00 18.7 8 Sur 16 Sur 0 924.7 -1.2 39
2019-04-16 19:00:00 19.3 7 Sudoeste 19 Sur 0 925.1 -1.6 41
2019-04-16 18:00:00 20.4 7 Sudeste 26 Sudeste 0 925.3 -2.2 37
2019-04-16 17:00:00 19.9 2 Sur 21 Sur 0 925.9 -2.2 36
2019-04-16 16:00:00 19.7 8 Sudoeste 29 Sudeste 0 926.7 -1.6 30
2019-04-16 15:00:00 18.8 10 Sur 24 Sudoeste 0 927.5 -1.5 31
2019-04-16 14:00:00 17.8 4 Sur 18 Este 0 928.1 -1.3 39
2019-04-16 13:00:00 15.5 6 Nordeste 18 Nordeste 0 928.3 -1.3 50
2019-04-16 12:00:00 13.8 8 Este 19 Nordeste 0 929 -0.7 65
2019-04-16 11:00:00 10.6 7 Este 14 Este 0 929.4 -0.3 80
2019-04-16 10:00:00 7.6 5 Nordeste 11 Nordeste 0 929.6 -0.2 90
2019-04-16 09:00:00 4.5 3 Este 8 Este 0 929.7 -0.2 97
2019-04-16 08:00:00 3.4 3 Este 8 Este 0 929.7 -0.3 97
2019-04-16 07:00:00 4.3 3 Este 6 Este 0 929.8 0.3 94
2019-04-16 06:00:00 4.8 3 Este 7 Sudoeste 0 929.9 -0.1 93
2019-04-16 05:00:00 5.7 2 Sur 6 Sudoeste 0.1 930 0.6 92
2019-04-16 04:00:00 6.6 0 Calma 8 Sudoeste 0 929.5 0 90
2019-04-16 03:00:00 7.2 3 Sudoeste 6 Sudoeste 0 930 0.7 88
2019-04-16 02:00:00 8 2 Sudoeste 8 Oeste 0 929.4 0.6 86
2019-04-16 01:00:00 9 2 Oeste 10 Oeste 0 929.5 1.9 85
2019-04-16 00:00:00 10.1 6 Oeste 13 Oeste 0 929.3 2.4 83
2019-04-15 23:00:00 11.1 5 Sudoeste 12 Sudoeste 0 928.8 2.6 85
2019-04-15 22:00:00 10.8 4 Sudoeste 11 Oeste 0 927.6 1.7 84
2019-04-15 21:00:00 11.4 8 Oeste 26 Oeste 0.2 926.9 1.3 78
2019-04-15 20:00:00 13.1 8 Sudoeste 22 Sudoeste 0 926.2 1.3 74
2019-04-15 19:00:00 13 8 Sudoeste 24 Sur 0.2 925.9 2 79
2019-04-15 18:00:00 11.3 9 Sudoeste 33 Sudoeste 0.1 925.6 2.7 83
2019-04-15 17:00:00 13.3 17 Oeste 54 Sudoeste 0 924.9 2 56
2019-04-15 16:00:00 16.5 19 Oeste 52 Sudoeste 0 923.9 0.8 50
2019-04-15 15:00:00 19 14 Sudoeste 48 Sur 0 922.9 -0.1 43
2019-04-15 14:00:00 19.5 22 Sur 47 Sudeste 0 922.9 -0.2 48
2019-04-15 13:00:00 18 20 Sur 46 Sudeste 0 923.1 -0.5 58
2019-04-15 12:00:00 18.9 22 Sur 45 Sudoeste 0 923 -0.8 60
2019-04-15 11:00:00 16.9 12 Sudoeste 27 Sudoeste 0 923.1 -0.6 72
2019-04-15 10:00:00 13.3 3 Este 8 Nordeste 0 923.6 -0.4 85
2019-04-15 09:00:00 12.7 2 Este 10 Norte 0 923.8 -0.8 88
2019-04-15 08:00:00 12.2 4 Este 12 Nordeste 0 923.7 -1.4 90
2019-04-15 07:00:00 11.9 2 Este 7 Este 0 924 -1.8 90
2019-04-15 06:00:00 11.7 3 Este 8 Este 0 924.6 -1.9 90
2019-04-15 05:00:00 11.9 4 Este 5 Este 0 925.1 -1.8 90
2019-04-15 04:00:00 12.2 4 Este 6 Este 0 925.8 -1.1 90
2019-04-15 03:00:00 12.9 0 Calma 4 Noroeste 0 926.5 -0.9 87
2019-04-15 02:00:00 13.3 0 Calma 4 Este 0 926.9 -0.8 85
2019-04-15 01:00:00 14.3 0 Calma 5 Este 0 926.9 -0.7 78
2019-04-15 00:00:00 15.8 4 Este 5 Sur 0 927.4 0.3 72
2019-04-14 23:00:00 16.2 0 Calma 5 Este 0 927.7 0.4 69
2019-04-14 22:00:00 16.9 2 Este 4 Este 0 927.6 -0.1 63
2019-04-14 21:00:00 18.3 2 Oeste 10 Oeste 0 927.1 -0.6 57
2019-04-14 20:00:00 19.6 5 Oeste 12 Oeste 0 927.3 -0.9 53
2019-04-14 19:00:00 20.1 0 Calma 14 Sudoeste 0 927.7 -1.2 52
2019-04-14 18:00:00 20 8 Oeste 21 Oeste 0 927.7 -1.6 51
2019-04-14 17:00:00 19.8 7 Oeste 19 Oeste 0 928.2 -1.3 53
2019-04-14 16:00:00 19.4 9 Oeste 23 Sudoeste 0 928.9 -0.9 56
2019-04-14 15:00:00 19.2 6 Oeste 18 Sudoeste 0 929.3 -1 56
2019-04-14 14:00:00 18.1 7 Oeste 17 Oeste 0 929.5 -0.8 60
2019-04-14 13:00:00 18.4 6 Sudoeste 15 Sudoeste 0 929.8 -0.4 59
2019-04-14 12:00:00 16.2 6 Oeste 15 Oeste 0 930.3 0.2 69
2019-04-14 11:00:00 14.8 8 Sur 16 Sur 0 930.3 0.4 78
2019-04-14 10:00:00 12.9 8 Sur 14 Sur 0 930.2 0.3 86
2019-04-14 09:00:00 11.8 8 Sur 13 Sudoeste 0 930.1 0.3 92
2019-04-14 08:00:00 11.4 0 Calma 8 Sudoeste 0 929.9 -0.3 93
2019-04-14 07:00:00 11.8 3 Oeste 9 Sudoeste 0 929.9 -0.5 93
2019-04-14 06:00:00 11.8 2 Sudoeste 8 Sudoeste 0 929.8 -0.8 91
2019-04-14 05:00:00 12.3 4 Sudoeste 8 Sudoeste 0 930.2 -0.7 90
2019-04-14 04:00:00 12.1 4 Sudoeste 17 Sudoeste 0 930.4 -0.6 90
2019-04-14 03:00:00 12.2 7 Oeste 17 Sudoeste 0 930.6 -0.4 87
2019-04-14 02:00:00 12.6 9 Sudoeste 15 Oeste 0 930.9 -0.1 80
2019-04-14 01:00:00 13.6 6 Sudoeste 16 Sudoeste 0 931 0.6 73
2019-04-14 00:00:00 14.6 7 Oeste 15 Sudoeste 0 931 1.2 63
2019-04-13 23:00:00 15.1 6 Oeste 19 Oeste 0 931 1.6 54
2019-04-13 22:00:00 16.5 10 Oeste 22 Oeste 0 930.4 1.2 47
2019-04-13 21:00:00 17.7 11 Oeste 29 Oeste 0 929.8 0.6 41
2019-04-13 20:00:00 19.3 8 Oeste 18 Oeste 0 929.4 0 34
2019-04-13 19:00:00 20.4 11 Sudoeste 23 Sudoeste 0 929.2 -0.8 30
2019-04-13 18:00:00 21.4 7 Sudoeste 22 Sudoeste 0 929.2 -1.3 28
2019-04-13 17:00:00 20.9 3 Sur 21 Oeste 0 929.4 -1.3 29
2019-04-13 16:00:00 20.4 7 Sur 17 Sur 0 930 -1.1 30
2019-04-13 15:00:00 19.4 0 Calma 20 Sudoeste 0 930.5 -1.1 32
2019-04-13 14:00:00 17.5 4 Oeste 14 Este 0 930.7 -1 37
2019-04-13 13:00:00 17.7 5 Este 14 Este 0 931.1 -0.5 38
2019-04-13 12:00:00 14.3 0 Calma 8 Este 0 931.6 0 50
2019-04-13 11:00:00 11 5 Este 10 Este 0 931.7 0.4 67
2019-04-13 10:00:00 8.5 3 Este 7 Este 0 931.6 0.9 77
2019-04-13 09:00:00 4.6 4 Este 8 Nordeste 0 931.6 0.8 88
2019-04-13 08:00:00 4.6 3 Este 8 Este 0 931.3 0.8 88
2019-04-13 07:00:00 4.9 3 Este 6 Este 0 930.7 0.2 88
2019-04-13 06:00:00 5 0 Calma 6 Este 0 930.8 0 86
2019-04-13 05:00:00 5.1 4 Este 8 Este 0 930.5 -0.6 85
2019-04-13 04:00:00 5.4 4 Este 7 Este 0 930.5 -0.6 85
2019-04-13 03:00:00 5.9 4 Este 6 Este 0 930.8 0.1 83
2019-04-13 02:00:00 6.5 3 Este 6 Este 0 931.1 0.2 81
2019-04-13 01:00:00 7.9 0 Calma 3 Sur 0 931.1 0.9 75
2019-04-13 00:00:00 9 0 Calma 7 Este 0 930.7 1.2 68
2019-04-12 23:00:00 10.7 0 Calma 5 Sudoeste 0 930.9 1.6 58
2019-04-12 22:00:00 12.9 0 Calma 5 Este 0 930.2 0.8 46
2019-04-12 21:00:00 14.8 2 Este 10 Nordeste 0 929.5 0.1 38
2019-04-12 20:00:00 17 2 Sudoeste 14 Oeste 0 929.3 -0.5 35
2019-04-12 19:00:00 17.4 7 Oeste 14 Oeste 0 929.4 -1.1 34
2019-04-12 18:00:00 16.5 2 Nordeste 18 Sudoeste 0 929.4 -1.5 36
2019-04-12 17:00:00 16.9 5 Norte 15 Nordeste 0 929.8 -1.6 37
2019-04-12 16:00:00 16.8 6 Sudoeste 16 Noroeste 0 930.5 -1.2 38
2019-04-12 15:00:00 15.7 0 Calma 17 Noroeste 0 930.9 -1.3 39
2019-04-12 14:00:00 13.2 5 Norte 15 Este 0 931.4 -0.7 45
2019-04-12 13:00:00 13.3 3 Este 14 Sudeste 0 931.7 -0.3 51
2019-04-12 12:00:00 11.4 5 Este 14 Este 0 932.2 0.6 62
2019-04-12 11:00:00 8.6 7 Nordeste 15 Este 0 932.1 0.6 73
2019-04-12 10:00:00 6.4 5 Este 13 Este 0 932 0.8 80
2019-04-12 09:00:00 3.5 3 Este 8 Nordeste 0 931.6 0.4 92
2019-04-12 08:00:00 2 3 Este 6 Nordeste 0 931.5 0.2 93
2019-04-12 07:00:00 2.5 0 Calma 4 Este 0 931.2 0 93
2019-04-12 06:00:00 2.7 0 Calma 4 Este 0 931.2 -0.1 90
2019-04-12 05:00:00 3.1 0 Calma 9 Este 0 931.3 0.2 88
2019-04-12 04:00:00 3.6 5 Este 10 Este 0 931.2 0 85
2019-04-12 03:00:00 4.5 5 Nordeste 17 Nordeste 0 931.3 0.1 81
2019-04-12 02:00:00 5.1 3 Oeste 6 Oeste 0 931.1 -0.1 77
2019-04-12 01:00:00 5.7 2 Oeste 4 Oeste 0 931.2 0.3 77
2019-04-12 00:00:00 6.6 3 Oeste 9 Oeste 0 931.2 0.9 72
2019-04-11 23:00:00 8.2 0 Calma 6 Este 0 931.2 0.9 65
2019-04-11 22:00:00 9.8 3 Noroeste 8 Noroeste 0 930.9 0.7 53
2019-04-11 21:00:00 11.7 3 Oeste 14 Norte 0 930.3 0 41
2019-04-11 20:00:00 13.2 4 Noroeste 13 Noroeste 0 930.3 -0.1 38
2019-04-11 19:00:00 13.3 4 Norte 21 Nordeste 0 930.2 -0.7 35
2019-04-11 18:00:00 14 6 Nordeste 24 Nordeste 0 930.3 -0.9 34
2019-04-11 17:00:00 14.5 3 Oeste 16 Noroeste 0 930.4 -1.1 38
2019-04-11 16:00:00 12.2 5 Noroeste 15 Norte 0 930.9 -1.6 45
2019-04-11 15:00:00 13.3 4 Noroeste 15 Nordeste 0 931.2 -0.8 45
2019-04-11 14:00:00 13.5 5 Este 16 Este 0 931.5 -0.1 50
2019-04-11 13:00:00 11.8 5 Este 17 Este 0 932.5 0.9 57
2019-04-11 12:00:00 10 7 Este 18 Este 0 932 0.5 65
2019-04-11 11:00:00 8 6 Este 13 Este 0 931.6 0.4 84
2019-04-11 10:00:00 3 0 Calma 8 Este 0 931.6 0.7 99
2019-04-11 09:00:00 1.5 3 Este 6 Este 0 931.5 0.5 99
2019-04-11 08:00:00 1.3 0 Calma 5 Este 0 931.2 0.4 99
2019-04-11 07:00:00 1.3 0 Calma 3 Este 0 930.9 0.2 99
2019-04-11 06:00:00 1.7 2 Este 6 Este 0 931 0.6 99
2019-04-11 05:00:00 2.9 0 Calma 5 Este 0 930.8 0.4 99
2019-04-11 04:00:00 3.6 0 Calma 7 Nordeste 0 930.7 0.4 98
2019-04-11 03:00:00 4.4 5 Nordeste 13 Este 0 930.4 0.4 97
2019-04-11 02:00:00 4.7 0 Calma 6 Sudoeste 0 930.4 0.4 98
2019-04-11 01:00:00 5.4 0 Calma 6 Sudoeste 0 930.3 0.6 96
2019-04-11 00:00:00 5.9 0 Calma 12 Sudoeste 0 930 1.9 94
2019-04-10 23:00:00 6.6 3 Oeste 13 Este 0.4 930 2.4 92
2019-04-10 22:00:00 7.1 3 Este 10 Este 0 929.7 2.5 89
2019-04-10 21:00:00 6.8 4 Oeste 15 Sudoeste 0 928.1 1.3 87
2019-04-10 20:00:00 7.7 6 Oeste 13 Sudoeste 0 927.6 1 84
2019-04-10 19:00:00 7.8 8 Oeste 17 Oeste 0 927.2 1 84
2019-04-10 18:00:00 7.6 8 Oeste 27 Oeste 0.6 926.8 0.7 84
2019-04-10 17:00:00 8.8 4 Noroeste 35 Sudoeste 4.6 926.6 0 75
2019-04-10 16:00:00 13.1 16 Oeste 35 Oeste 0 926.2 -0.9 53
2019-04-10 15:00:00 12.7 19 Oeste 34 Oeste 0 926.1 -1.1 56
2019-04-10 14:00:00 11.8 15 Oeste 31 Sudoeste 0 926.6 -0.7 58
2019-04-10 13:00:00 11.2 15 Oeste 33 Oeste 0 927.1 0.2 62
2019-04-10 12:00:00 9.4 15 Oeste 31 Oeste 0 927.2 0.2 69
2019-04-10 11:00:00 7.8 16 Oeste 33 Oeste 0 927.3 0.7 78
2019-04-10 10:00:00 7 13 Oeste 27 Sudoeste 0 926.9 0.5 89
2019-04-10 09:00:00 6.1 9 Sudoeste 26 Oeste 0 927 0.8 93
2019-04-10 08:00:00 5.8 10 Sudoeste 23 Sudoeste 0 926.6 0.2 93
2019-04-10 07:00:00 5.7 9 Sudoeste 24 Sudoeste 0 926.4 0.1 92
2019-04-10 06:00:00 6.1 8 Sudoeste 21 Sudoeste 0 926.2 -0.5 91
2019-04-10 05:00:00 6.2 8 Sudoeste 24 Sudoeste 0 926.4 -0.4 91
2019-04-10 04:00:00 6 8 Sudoeste 24 Sudoeste 0 926.3 -0.3 92
2019-04-10 03:00:00 6.4 13 Sudoeste 26 Sudoeste 0 926.7 0.3 91
2019-04-10 02:00:00 5.9 9 Oeste 24 Sudoeste 0 926.8 0.4 92
2019-04-10 01:00:00 6.3 9 Oeste 24 Oeste 0 926.6 0.8 90
2019-04-10 00:00:00 6.7 10 Oeste 29 Sudoeste 0 926.4 1.2 89
2019-04-09 23:00:00 7.3 12 Oeste 35 Oeste 0 926.4 1.8 88
2019-04-09 22:00:00 8 12 Oeste 27 Oeste 0.1 925.8 1.6 85
2019-04-09 21:00:00 8.4 9 Oeste 27 Sudoeste 0.2 925.2 1 81
2019-04-09 20:00:00 9.4 15 Oeste 31 Oeste 0 924.6 0 70
2019-04-09 19:00:00 11.3 13 Oeste 36 Sudoeste 0 924.2 -0.1 56
2019-04-09 18:00:00 11.8 17 Sudoeste 38 Sudoeste 0 924.2 -0.3 60
2019-04-09 17:00:00 10.2 20 Oeste 46 Sudoeste 0 924.6 -0.1 58
2019-04-09 16:00:00 12.5 16 Oeste 41 Oeste 0 924.3 -0.5 49
2019-04-09 15:00:00 11.2 19 Oeste 48 Sudoeste 0 924.5 -0.6 53
2019-04-09 14:00:00 10 17 Sudoeste 40 Sudoeste 0 924.7 0.1 69
2019-04-09 13:00:00 7.2 16 Sudoeste 35 Sur 0 924.8 0.6 89
2019-04-09 12:00:00 4.6 10 Sudoeste 36 Sudoeste 2 925.1 0.9 95
2019-04-09 11:00:00 6.1 14 Sudoeste 39 Sudoeste 1 924.6 0.7 89
2019-04-09 10:00:00 7.4 15 Sudoeste 31 Sudoeste 0 924.2 0 82
2019-04-09 09:00:00 6.8 13 Sur 26 Sudoeste 0 924.2 -0.1 86
2019-04-09 08:00:00 6 6 Sur 18 Sur 0 923.9 -0.7 90
2019-04-09 07:00:00 6 9 Sur 24 Sur 0 924.2 -0.5 90
2019-04-09 06:00:00 5.6 10 Sur 22 Sur 0 924.3 -1 91
2019-04-09 05:00:00 5.4 7 Sur 16 Sur 0 924.6 -0.6 91
2019-04-09 04:00:00 5.6 4 Sudeste 14 Sur 0 924.7 -0.7 90
2019-04-09 03:00:00 5.8 6 Sur 14 Sudoeste 0 925.3 -0.1 87
2019-04-09 02:00:00 6.1 5 Sur 12 Sudoeste 0 925.2 -0.3 85
2019-04-09 01:00:00 6.7 9 Sudoeste 22 Sudoeste 0 925.4 0.3 84
2019-04-09 00:00:00 6.8 7 Sur 18 Sudoeste 0 925.4 0.7 82
2019-04-08 23:00:00 7.4 6 Sur 19 Sur 0 925.5 1 80
2019-04-08 22:00:00 8.3 10 Sur 19 Sur 0 925.1 1 74
2019-04-08 21:00:00 9.3 7 Sudoeste 29 Sudoeste 0 924.7 0.8 69
2019-04-08 20:00:00 10.8 11 Sudoeste 33 Sudoeste 0 924.5 0.6 60
2019-04-08 19:00:00 10.9 12 Oeste 38 Oeste 0 924.1 -0.5 56
2019-04-08 18:00:00 13 20 Oeste 33 Oeste 0 923.9 -1 50
2019-04-08 17:00:00 13.9 12 Sudoeste 28 Oeste 0 923.9 -1.1 45
2019-04-08 16:00:00 12.9 12 Sudoeste 32 Sudoeste 0 924.6 -0.3 49
2019-04-08 15:00:00 12.5 13 Sudoeste 31 Sudoeste 0 924.9 -0.6 47
2019-04-08 14:00:00 11.9 13 Sudoeste 32 Sudoeste 0.1 925 0.2 61
2019-04-08 13:00:00 10.5 8 Sudoeste 28 Sudoeste 0 924.9 0.1 77
2019-04-08 12:00:00 9.4 14 Sudoeste 26 Sudoeste 0 925.5 0.7 78
2019-04-08 11:00:00 10.1 13 Sudoeste 26 Sudoeste 0 924.8 0.6 76
2019-04-08 10:00:00 9 10 Sudoeste 22 Sur 0 924.8 1.1 86
2019-04-08 09:00:00 7.9 7 Oeste 24 Sudoeste 0 924.8 1.7 93
2019-04-08 08:00:00 8 9 Sudoeste 25 Sudoeste 0 924.2 1.1 94
2019-04-08 07:00:00 8.1 9 Sudoeste 21 Oeste 0 923.7 0.9 95
2019-04-08 06:00:00 8.7 11 Sudoeste 31 Sudoeste 0.7 923.1 0 97
2019-04-08 05:00:00 9.1 12 Sur 25 Sur 0.3 923.1 -0.1 96
2019-04-08 04:00:00 9.3 8 Sur 22 Sudoeste 0.2 922.8 -0.7 93
2019-04-08 03:00:00 9.1 6 Sur 17 Sur 0 923.1 -0.6 90
2019-04-08 02:00:00 8.7 5 Sur 22 Sudoeste 0 923.2 -0.6 90
2019-04-08 01:00:00 9 6 Sur 17 Sudoeste 0 923.5 -0.2 88
2019-04-08 00:00:00 9.4 7 Sur 21 Sudoeste 0 923.7 0.3 89
2019-04-07 23:00:00 9 6 Sur 23 Sur 0 923.8 0.4 91
2019-04-07 22:00:00 9 11 Sur 25 Sur 0 923.7 0 91
2019-04-07 21:00:00 8.7 11 Sur 29 Sur 0 923.4 -0.3 91
2019-04-07 20:00:00 8.8 11 Sur 25 Sur 0 923.4 -0.4 91
2019-04-07 19:00:00 8.5 7 Sur 20 Sur 0.4 923.7 0 90
2019-04-07 18:00:00 8.5 8 Sur 25 Sur 0.6 923.7 0 86
2019-04-07 17:00:00 9.1 9 Sur 27 Sudoeste 0.2 923.8 0 77
2019-04-07 16:00:00 10.1 13 Sudoeste 28 Sudoeste 0 923.7 -0.1 62
2019-04-07 15:00:00 10.2 13 Sudoeste 28 Sudoeste 0 923.7 -0.1 64
2019-04-07 14:00:00 9.7 9 Sur 22 Sur 0 923.8 0.3 64
2019-04-07 13:00:00 9.7 9 Sudoeste 25 Sudoeste 0 923.8 0.6 64
2019-04-07 12:00:00 8.4 8 Sudoeste 23 Oeste 0 923.8 1.2 69
2019-04-07 11:00:00 7.1 11 Sudoeste 26 Sudoeste 0 923.5 1.8 79
2019-04-07 10:00:00 6.2 9 Sudoeste 23 Sudoeste 0 923.2 2.3 85
2019-04-07 09:00:00 4.9 9 Sudoeste 24 Sudoeste 0 922.6 2.2 90
2019-04-07 08:00:00 4.5 12 Sudoeste 26 Sudoeste 0 921.7 1.8 93
2019-04-07 07:00:00 4.2 13 Sudoeste 26 Sudoeste 0 920.9 1.3 94
2019-04-07 06:00:00 3.7 7 Sudoeste 19 Sudoeste 0 920.4 1 94
2019-04-07 05:00:00 3.7 6 Oeste 23 Sudoeste 0 919.9 1 94
2019-04-07 04:00:00 4.2 13 Sudoeste 29 Sudoeste 0 919.6 0.8 93
2019-04-07 03:00:00 4.8 11 Oeste 28 Sudoeste 0 919.4 0.8 91
2019-04-07 02:00:00 4.7 15 Sudoeste 35 Sudoeste 0 918.9 0.6 91
2019-04-07 01:00:00 4.6 15 Sudoeste 34 Sudoeste 0 918.8 0.8 92
2019-04-07 00:00:00 4.8 16 Sudoeste 34 Sudoeste 0 918.6 0.9 87
2019-04-06 23:00:00 4.8 13 Sudoeste 34 Sudoeste 0.1 918.3 1.8 87
2019-04-06 22:00:00 4.8 14 Sudoeste 31 Sudoeste 0 918 2.1 85
2019-04-06 21:00:00 6.2 15 Sudoeste 42 Sudoeste 0 917.7 2.4 78
2019-04-06 20:00:00 7.5 15 Oeste 40 Sudoeste 0 916.5 1.5 70
2019-04-06 19:00:00 7.9 22 Sudoeste 48 Sudoeste 0 915.9 0.9 65
2019-04-06 18:00:00 8.3 18 Oeste 43 Oeste 0.3 915.3 0.5 69
2019-04-06 17:00:00 8 17 Sudoeste 37 Sudoeste 0.1 915 0.2 81
2019-04-06 16:00:00 6.6 13 Sudoeste 49 Sudoeste 1.1 915 0.4 90
2019-04-06 15:00:00 7.3 19 Sudoeste 58 Sudoeste 0 914.8 0 78
2019-04-06 14:00:00 7.5 22 Sudoeste 48 Oeste 0 914.8 0.1 79
2019-04-06 13:00:00 6.6 27 Sudoeste 59 Sudoeste 0 914.6 0.1 76
2019-04-06 12:00:00 4.9 16 Sudoeste 48 Sudoeste 0.1 914.8 0.8 90
2019-04-06 11:00:00 5.2 17 Sudoeste 43 Sudoeste 0 914.7 0.7 86
2019-04-06 10:00:00 4 18 Sudoeste 50 Sudoeste 0 914.5 0.7 92
2019-04-06 09:00:00 3.5 14 Sur 28 Sur 0.1 914 0.2 95
2019-04-06 08:00:00 3.3 10 Sudoeste 25 Sudoeste 0.3 914 0 94
2019-04-06 07:00:00 3.9 11 Sur 28 Sudeste 0 913.8 -0.4 91
2019-04-06 06:00:00 4 10 Sur 22 Sudoeste 0 913.8 -0.9 90
2019-04-06 05:00:00 3.6 11 Sur 24 Sudoeste 0 914 -0.8 92
2019-04-06 04:00:00 3.7 12 Sur 29 Sudoeste 0 914.2 -0.5 94
2019-04-06 03:00:00 3.6 12 Sudoeste 30 Sudoeste 0 914.7 0.2 94
2019-04-06 02:00:00 3.4 10 Sudoeste 27 Sudoeste 0 914.8 0.7 95
2019-04-06 01:00:00 3.6 10 Sudoeste 25 Sudoeste 0 914.7 1.3 94
2019-04-06 00:00:00 3.6 10 Sudoeste 23 Sudoeste 0 914.5 1.9 94
2019-04-05 23:00:00 3.6 8 Sudoeste 24 Sudoeste 0 914.1 2 94
2019-04-05 22:00:00 3.9 15 Sudoeste 32 Sudoeste 0.5 913.4 2.1 91
2019-04-05 21:00:00 5 12 Oeste 31 Sudoeste 0.4 912.6 1.9 88
2019-04-05 20:00:00 6.5 15 Sudoeste 41 Sudoeste 0 912.1 1.5 69
2019-04-05 19:00:00 7.5 21 Sudoeste 44 Oeste 0 911.3 0.3 66
2019-04-05 18:00:00 9 9 Oeste 43 Sudoeste 0.2 910.7 -0.9 61
2019-04-05 17:00:00 9.9 15 Sudoeste 36 Sudoeste 0 910.6 -0.7 54
2019-04-05 16:00:00 7.4 9 Sudoeste 30 Sudoeste 0 911 -0.1 76
2019-04-05 15:00:00 4.6 14 Sudoeste 33 Sudoeste 0.4 911.6 0.2 88
2019-04-05 14:00:00 6 13 Sudoeste 41 Sudoeste 0 911.3 0 78
2019-04-05 13:00:00 6.7 9 Sudoeste 24 Oeste 0 911.1 0.4 71
2019-04-05 12:00:00 5.7 10 Sudoeste 27 Sudoeste 0.1 911.4 1.1 83
2019-04-05 11:00:00 4.4 5 Sudoeste 17 Sur 0.1 911.3 0.9 92
2019-04-05 10:00:00 3.7 4 Sudoeste 13 Sudoeste 0 910.7 0.5 94
2019-04-05 09:00:00 3.3 6 Sudoeste 18 Sur 0 910.3 0.6 97
2019-04-05 08:00:00 3 4 Sudoeste 13 Sudoeste 0 910.4 0.6 98
2019-04-05 07:00:00 2.8 5 Sudoeste 33 Oeste 1.2 910.2 0.2 96
2019-04-05 06:00:00 5.7 9 Sur 24 Sur 0 909.7 -0.9 91
2019-04-05 05:00:00 5.2 12 Sur 28 Sur 0 909.8 -1.3 92
2019-04-05 04:00:00 4.8 13 Sur 33 Sur 0 910 -1.6 91
2019-04-05 03:00:00 5.1 16 Sur 35 Sudoeste 0 910.6 -1.7 92
2019-04-05 02:00:00 5 14 Sur 32 Sur 0 911.1 -1.9 91
2019-04-05 01:00:00 5.1 13 Sur 31 Sur 0 911.6 -1.3 89
2019-04-05 00:00:00 5.7 10 Sur 23 Sur 0.1 912.3 -0.7 89
2019-04-04 23:00:00 5.9 11 Sur 21 Sur 0 913 -0.5 86
2019-04-04 22:00:00 6.6 7 Oeste 22 Oeste 0 912.9 -0.2 78
2019-04-04 21:00:00 7.2 9 Oeste 30 Sudoeste 0 913 -0.2 78
2019-04-04 20:00:00 8.5 12 Sudoeste 36 Oeste 0 913.5 -0.1 61
2019-04-04 19:00:00 10.6 11 Oeste 37 Sudoeste 0 913.1 -1.4 45
2019-04-04 18:00:00 11.7 13 Sudoeste 33 Sudoeste 0 913.2 -2.5 39
2019-04-04 17:00:00 12.8 16 Oeste 33 Sudoeste 0 913.6 -3 38
2019-04-04 16:00:00 12.3 14 Sudoeste 32 Sudoeste 0 914.5 -3.9 38
2019-04-04 15:00:00 11.5 12 Sudoeste 31 Sudoeste 0 915.7 -2.1 41
2019-04-04 14:00:00 10.1 11 Sudoeste 23 Sudoeste 0 916.6 -1.5 48
2019-04-04 13:00:00 8.3 7 Sudoeste 18 Sudoeste 0 918.4 -0.1 53
2019-04-04 12:00:00 6.3 8 Oeste 19 Oeste 0 917.8 -0.5 59
2019-04-04 11:00:00 6.1 5 Sudoeste 17 Oeste 0 918.1 -0.1 65
2019-04-04 10:00:00 3.8 7 Oeste 13 Oeste 0 918.5 0.6 74
2019-04-04 09:00:00 0.4 4 Sudoeste 12 Sudoeste 0 918.3 0.4 84
2019-04-04 08:00:00 -0.6 3 Sudoeste 9 Sudoeste 0 918.2 0.2 85
2019-04-04 07:00:00 -0.4 4 Sudoeste 10 Sur 0 917.9 -0.4 84
2019-04-04 06:00:00 0.6 2 Sur 13 Sudoeste 0 917.9 -0.9 82
2019-04-04 05:00:00 0.9 6 Sudoeste 13 Sudoeste 0 918 -1.4 81
2019-04-04 04:00:00 1.6 6 Sudoeste 15 Oeste 0 918.3 -1.4 76
2019-04-04 03:00:00 2.4 7 Oeste 15 Sudoeste 0 918.8 -0.9 70
2019-04-04 02:00:00 3.6 8 Oeste 18 Oeste 0 919.4 0 64
2019-04-04 01:00:00 4.2 6 Oeste 19 Noroeste 0 919.7 0.6 57
2019-04-04 00:00:00 5.4 5 Oeste 19 Oeste 0 919.7 1.3 53
2019-04-03 23:00:00 6.3 8 Oeste 24 Oeste 0 919.4 1.4 50
2019-04-03 22:00:00 7.6 10 Oeste 26 Oeste 0 919.1 1 49
2019-04-03 21:00:00 8.9 14 Oeste 32 Oeste 0 918.4 0.4 45
2019-04-03 20:00:00 10.5 15 Oeste 33 Oeste 0 918 -0.3 40
2019-04-03 19:00:00 11.9 17 Oeste 35 Oeste 0 918.1 -1.1 41
2019-04-03 18:00:00 12.6 18 Oeste 34 Sudoeste 0 918 -1.8 40
2019-04-03 17:00:00 12.9 13 Oeste 34 Oeste 0 918.3 -2.1 40
2019-04-03 16:00:00 12.9 10 Oeste 30 Noroeste 0 919.2 -2.8 43
2019-04-03 15:00:00 12.1 9 Oeste 24 Noroeste 0 919.8 -1.7 48
2019-04-03 14:00:00 10.6 9 Oeste 18 Noroeste 0 920.4 -1.2 54
2019-04-03 13:00:00 9.2 3 Oeste 15 Sudoeste 0 922 0.3 62
2019-04-03 12:00:00 7.3 5 Oeste 24 Oeste 0 921.5 -0.4 71
2019-04-03 11:00:00 6.9 11 Oeste 26 Oeste 0 921.6 -0.4 71
2019-04-03 10:00:00 6.3 15 Oeste 25 Oeste 0 921.7 -0.5 76
2019-04-03 09:00:00 5.7 9 Oeste 21 Sudoeste 0 921.9 -0.7 81
2019-04-03 08:00:00 5.6 8 Oeste 18 Oeste 0 922 -1.1 88
2019-04-03 07:00:00 6 7 Oeste 15 Sudoeste 0 922.2 -1.7 89
2019-04-03 06:00:00 6.6 6 Oeste 14 Oeste 0 922.6 -1.7 87
2019-04-03 05:00:00 6.9 5 Oeste 11 Sudoeste 0 923.1 -1.7 85
2019-04-03 04:00:00 7.4 5 Sudoeste 14 Oeste 0 923.9 -1.3 77
2019-04-03 03:00:00 8.4 8 Oeste 13 Oeste 0 924.3 -1 69
2019-04-03 02:00:00 8.8 6 Oeste 16 Oeste 0 924.8 -0.3 63
2019-04-03 01:00:00 9.7 7 Oeste 17 Noroeste 0 925.2 0.2 57
2019-04-03 00:00:00 10.8 7 Oeste 13 Oeste 0 925.3 0.9 51
2019-04-02 23:00:00 11.6 4 Oeste 11 Noroeste 0 925.1 0.4 45
2019-04-02 22:00:00 12.9 6 Oeste 15 Oeste 0 925 0.6 41
2019-04-02 21:00:00 14.4 9 Oeste 24 Oeste 0 924.4 -0.2 36
2019-04-02 20:00:00 16.6 15 Oeste 33 Oeste 0 924.7 -0.5 35
2019-04-02 19:00:00 17.5 18 Oeste 35 Oeste 0 924.4 -1.1 35
2019-04-02 18:00:00 18.2 16 Oeste 36 Oeste 0 924.6 -1.4 36
2019-04-02 17:00:00 18.8 14 Oeste 32 Sudoeste 0 925.2 -1.5 35
2019-04-02 16:00:00 18.7 12 Oeste 36 Sudoeste 0 925.5 -2 41
2019-04-02 15:00:00 17.9 13 Sudoeste 30 Sudoeste 0 926 -1.6 42
2019-04-02 14:00:00 16.9 12 Oeste 28 Oeste 0 926.7 -0.6 46
2019-04-02 13:00:00 15.6 12 Sudoeste 23 Sudoeste 0 927.5 0.2 53
2019-04-02 12:00:00 13.9 9 Sudoeste 20 Sur 0 927.6 0.5 61
2019-04-02 11:00:00 13 9 Sudoeste 17 Sudoeste 0 927.3 0.5 64
2019-04-02 10:00:00 10.6 8 Sudoeste 19 Sudoeste 0 927.3 0.9 77
2019-04-02 09:00:00 9.8 7 Sudoeste 15 Sudoeste 0 927.1 0.3 81
2019-04-02 08:00:00 10 5 Sudoeste 12 Sudoeste 0 926.8 -0.1 80
2019-04-02 07:00:00 10.2 5 Oeste 11 Sudoeste 0 926.4 -0.6 78
2019-04-02 06:00:00 10.4 4 Sudoeste 12 Sudoeste 0 926.8 -0.2 76
2019-04-02 05:00:00 9.7 0 Calma 7 Sudoeste 0 926.9 -0.2 74
2019-04-02 04:00:00 9.6 4 Oeste 12 Oeste 0 927 0 73
2019-04-02 03:00:00 10.1 5 Oeste 18 Oeste 0 927 0.1 70
2019-04-02 02:00:00 10.7 6 Oeste 13 Sudoeste 0 927.1 0.5 67
2019-04-02 01:00:00 10.9 3 Oeste 13 Sur 0 927 0.8 67
2019-04-02 00:00:00 11.3 4 Sudoeste 13 Sudoeste 0 926.9 1.6 67
2019-04-01 23:00:00 11.5 7 Oeste 18 Oeste 0 926.6 2.3 65
2019-04-01 22:00:00 12.8 10 Oeste 30 Oeste 0 926.2 2.2 61
2019-04-01 21:00:00 14.4 14 Oeste 29 Oeste 0 925.3 1.5 54
2019-04-01 20:00:00 17.3 3 Nordeste 12 Nordeste 0 924.3 0.5 37
2019-04-01 19:00:00 18.5 6 Nordeste 13 Este 0 924 -0.2 36
2019-04-01 18:00:00 19 0 Calma 14 Sudeste 0 923.8 -0.9 37
2019-04-01 17:00:00 18.2 4 Nordeste 16 Noroeste 0 923.8 -1.5 38
2019-04-01 16:00:00 18 5 Nordeste 14 Sudeste 0 924.2 -1.6 40
2019-04-01 15:00:00 17.5 2 Sur 14 Sudeste 0 924.7 -1.3 45
2019-04-01 14:00:00 16.7 4 Sudeste 17 Este 0 925.3 -0.5 50
2019-04-01 13:00:00 15.4 7 Este 16 Este 0 925.8 0.2 56
2019-04-01 12:00:00 13 5 Este 13 Sudeste 0 926 0.9 66
2019-04-01 11:00:00 10.6 6 Este 12 Este 0 925.8 1.1 74
2019-04-01 10:00:00 7.8 4 Este 11 Este 0 925.6 1.1 83
2019-04-01 09:00:00 5.1 5 Este 9 Este 0 925.1 0.8 93
2019-04-01 08:00:00 4.5 4 Este 8 Nordeste 0 924.7 0.4 92
2019-04-01 07:00:00 5.2 0 Calma 5 Sur 0 924.5 0.4 91
2019-04-01 06:00:00 5.9 0 Calma 6 Este 0 924.3 0.1 90
2019-04-01 05:00:00 6.6 0 Calma 8 Este 0 924.3 0.2 86
2019-04-01 04:00:00 7.2 3 Este 10 Este 0 924.1 0.1 85
2019-04-01 03:00:00 8 6 Nordeste 13 Nordeste 0 924.2 0.3 80
2019-04-01 02:00:00 8.9 5 Este 12 Este 0 924.1 0.5 74
2019-04-01 01:00:00 9.7 4 Este 8 Nordeste 0 924 1.2 70
2019-04-01 00:00:00 10.2 4 Este 9 Este 0 923.9 1.5 63
2019-03-31 23:00:00 12 3 Este 9 Este 0 923.6 1.3 56
2019-03-31 22:00:00 14.6 0 Calma 7 Norte 0 922.8 1 49
2019-03-31 21:00:00 15.4 0 Calma 12 Nordeste 0 922.4 0.5 47
2019-03-31 20:00:00 16.4 4 Sudeste 18 Sudeste 0 922.3 0.2 45
2019-03-31 19:00:00 17.1 9 Sudeste 28 Sudeste 0 921.8 -0.8 43
2019-03-31 18:00:00 17.7 11 Sudeste 23 Sudeste 0 921.9 -1.4 39
2019-03-31 17:00:00 19.1 8 Nordeste 26 Noroeste 0 922.1 -2 34
2019-03-31 16:00:00 18.6 6 Nordeste 21 Nordeste 0 922.6 -2.3 36
2019-03-31 15:00:00 17.9 5 Norte 28 Nordeste 0 923.3 -2.2 37
2019-03-31 14:00:00 18.8 6 Nordeste 19 Nordeste 0 924.1 -1.4 41
2019-03-31 13:00:00 17.4 9 Este 22 Este 0 924.9 -0.2 47
2019-03-31 12:00:00 12.7 5 Nordeste 13 Noroeste 0 925.5 0.4 56
2019-03-31 11:00:00 10.2 4 Nordeste 13 Nordeste 0 925.5 0.9 60
2019-03-31 10:00:00 7 0 Calma 8 Sudoeste 0 925.1 0.3 75
2019-03-31 09:00:00 3.9 0 Calma 10 Este 0 925.1 0.1 82
2019-03-31 08:00:00 3.7 0 Calma 6 Este 0 924.6 -1.2 82
2019-03-31 07:00:00 4.3 3 Este 8 Sudeste 0 924.8 -1.2 80
2019-03-31 06:00:00 4.6 3 Este 10 Este 0 925 -1.5 77
2019-03-31 05:00:00 5.6 0 Calma 7 Este 0 925.8 -1.1 75
2019-03-31 03:00:00 7.2 4 Este 8 Oeste 0 926.5 -0.9 63
2019-03-31 01:00:00 8.4 0 Calma 11 Este 0 926.9 -0.6 60
2019-03-31 00:00:00 9.9 0 Calma 3 Este 0 927 -0.1 52
2019-03-30 23:00:00 11.5 0 Calma 11 Este 0 927.4 0.7 46
2019-03-30 22:00:00 12.5 3 Este 8 Este 0 927.5 0.9 44
2019-03-30 21:00:00 14 5 Este 12 Nordeste 0 927.1 0.8 39
2019-03-30 20:00:00 16.1 3 Este 13 Nordeste 0 926.7 0.2 34
2019-03-30 19:00:00 17.4 7 Nordeste 13 Este 0 926.6 -0.2 32
2019-03-30 18:00:00 18.4 7 Nordeste 19 Nordeste 0 926.3 -1.5 33
2019-03-30 17:00:00 19.1 9 Nordeste 18 Este 0 926.5 -2.1 32
2019-03-30 16:00:00 18.9 4 Noroeste 17 Nordeste 0 926.8 -2.5 32
2019-03-30 15:00:00 19.5 4 Nordeste 19 Norte 0 927.8 -2.2 33
2019-03-30 14:00:00 19.5 4 Sur 16 Este 0 928.6 -1.9 33
2019-03-30 13:00:00 19.2 0 Calma 13 Sudoeste 0 929.3 -1.3 35
2019-03-30 12:00:00 17.5 5 Sudoeste 11 Sudoeste 0 930 -0.7 37
2019-03-30 11:00:00 16.1 3 Este 10 Este 0 930.5 -0.1 45
2019-03-30 10:00:00 11.8 4 Este 10 Este 0 930.6 0 56
2019-03-30 09:00:00 7.5 3 Este 9 Este 0 930.7 0.1 66
2019-03-30 08:00:00 3.6 4 Este 8 Este 0 930.6 -0.1 74
2019-03-30 07:00:00 3.6 5 Este 9 Este 0 930.6 -0.2 72
2019-03-30 06:00:00 4.3 4 Este 6 Este 0 930.6 -0.3 73
2019-03-30 05:00:00 4.9 3 Este 8 Este 0 930.7 -0.6 70
2019-03-30 04:00:00 5.4 4 Este 8 Este 0 930.8 -0.3 70
2019-03-30 03:00:00 6.3 3 Este 7 Este 0 930.9 -0.2 66
2019-03-30 02:00:00 6.4 5 Este 11 Este 0 931.3 0.3 61
2019-03-30 01:00:00 8.3 0 Calma 7 Sur 0 931.1 0.1 53
2019-03-30 00:00:00 9 0 Calma 20 Sur 0 931.1 0.3 48
2019-03-29 23:00:00 10.7 3 Este 10 Este 0 931 0.6 42
2019-03-29 22:00:00 12.8 5 Este 13 Nordeste 0 931 1 37
2019-03-29 21:00:00 15 0 Calma 16 Este 0 930.8 0.9 33
2019-03-29 20:00:00 16.9 4 Norte 14 Noroeste 0 930.4 0.4 33
2019-03-29 19:00:00 18.3 5 Noroeste 17 Noroeste 0 930 -0.4 33
2019-03-29 18:00:00 18.8 6 Oeste 20 Noroeste 0 929.9 -1.2 32
2019-03-29 17:00:00 18.8 7 Oeste 21 Oeste 0 930 -1.9 32
2019-03-29 16:00:00 20.1 2 Norte 18 Noroeste 0 930.4 -2 30
2019-03-29 15:00:00 19.6 2 Nordeste 16 Norte 0 931.1 -1.6 32
2019-03-29 14:00:00 17.9 4 Noroeste 19 Oeste 0 931.9 -1.4 32
2019-03-29 13:00:00 18.4 10 Oeste 21 Oeste 0 932.4 -1.2 34
2019-03-29 12:00:00 17.1 0 Calma 10 Oeste 0 932.7 -0.9 36
2019-03-29 11:00:00 14.9 3 Sudeste 8 Sudeste 0 933.3 -0.5 42
2019-03-29 10:00:00 11.5 2 Sur 5 Sudoeste 0 933.6 0.1 57
2019-03-29 09:00:00 6.6 3 Este 10 Este 0 933.6 0.2 65
2019-03-29 08:00:00 3.1 4 Este 6 Este 0 933.8 0.5 73
2019-03-29 07:00:00 2.4 3 Este 10 Este 0 933.5 0.1 73
2019-03-29 06:00:00 2.7 4 Este 8 Este 0 933.4 -0.2 70
2019-03-29 05:00:00 3.3 4 Este 13 Este 0 933.3 -0.6 67
2019-03-29 04:00:00 4.3 2 Este 12 Nordeste 0 933.4 -0.7 65
2019-03-29 03:00:00 5.4 3 Este 7 Este 0 933.6 -0.5 64
2019-03-29 02:00:00 6.5 3 Este 9 Este 0 933.9 -0.3 63
2019-03-29 01:00:00 8 2 Este 7 Nordeste 0 934.1 -0.1 58
2019-03-29 00:00:00 9.9 4 Este 12 Nordeste 0 934.1 0.4 50
2019-03-28 23:00:00 11.3 4 Este 14 Este 0 934.2 0.9 46
2019-03-28 22:00:00 11.9 5 Este 18 Nordeste 0 934.2 1.1 43
2019-03-28 21:00:00 14.8 9 Nordeste 17 Nordeste 0 933.7 0.6 36
2019-03-28 20:00:00 16.2 6 Nordeste 18 Nordeste 0 933.3 -0.1 33
2019-03-28 19:00:00 18.8 9 Nordeste 23 Nordeste 0 933.1 -0.9 29
2019-03-28 18:00:00 19.7 6 Este 13 Este 0 933.1 -1.7 28
2019-03-28 17:00:00 19.9 0 Calma 16 Nordeste 0 933.4 -2.2 28
2019-03-28 16:00:00 19 3 Norte 17 Nordeste 0 934 -2.2 29
2019-03-28 15:00:00 18.2 3 Nordeste 17 Nordeste 0 934.8 -1.7 33
2019-03-28 14:00:00 17.4 4 Nordeste 19 Nordeste 0 935.6 -1.3 36
2019-03-28 13:00:00 15 6 Nordeste 18 Norte 0 936.2 -0.8 41
2019-03-28 12:00:00 13.2 4 Nordeste 19 Nordeste 0 936.5 -0.8 46
2019-03-28 11:00:00 10 5 Nordeste 17 Norte 0 936.9 -0.2 50
2019-03-28 10:00:00 8 6 Nordeste 19 Nordeste 0 937 0.1 53
2019-03-28 09:00:00 5.6 5 Nordeste 14 Nordeste 0 937.3 0.9 56
2019-03-28 08:00:00 2.6 3 Este 11 Este 0 937.1 0.8 58
2019-03-28 07:00:00 2.5 3 Este 10 Este 0 936.9 0.8 55
2019-03-28 06:00:00 3.2 3 Este 8 Nordeste 0 936.4 0.3 49
2019-03-28 05:00:00 4.4 3 Nordeste 14 Norte 0 936.3 0.2 46
2019-03-28 04:00:00 4.8 4 Nordeste 19 Nordeste 0 936.1 -0.1 44
2019-03-28 03:00:00 5.7 5 Este 19 Nordeste 0 936.1 0.1 41
2019-03-28 02:00:00 7.3 9 Nordeste 21 Nordeste 0 936.1 0.7 39
2019-03-28 01:00:00 8.1 6 Nordeste 21 Nordeste 0 936.2 1.3 37
2019-03-28 00:00:00 9.1 7 Este 23 Nordeste 0 936 1.7 36
2019-03-27 23:00:00 10.4 7 Nordeste 19 Nordeste 0 935.4 1.9 34
2019-03-27 22:00:00 11.9 7 Nordeste 26 Este 0 934.9 1.8 31
2019-03-27 21:00:00 13.8 10 Nordeste 25 Nordeste 0 934.3 1.4 29
2019-03-27 20:00:00 16.1 10 Nordeste 23 Nordeste 0 933.5 0.5 28
2019-03-27 19:00:00 18.7 9 Nordeste 21 Nordeste 0 933.1 -0.2 26
2019-03-27 18:00:00 19.9 8 Nordeste 24 Nordeste 0 932.9 -0.8 26
2019-03-27 17:00:00 19.1 11 Nordeste 30 Nordeste 0 933 -1.2 27
2019-03-27 16:00:00 18.9 10 Nordeste 24 Nordeste 0 933.3 -1.3 28
2019-03-27 15:00:00 17.5 5 Nordeste 26 Nordeste 0 933.7 -1.2 31
2019-03-27 14:00:00 17.1 6 Norte 25 Nordeste 0 934.2 -0.7 33
2019-03-27 13:00:00 15.8 8 Nordeste 21 Norte 0 934.6 -0.5 36
2019-03-27 12:00:00 14.5 8 Este 18 Nordeste 0 934.9 -0.1 42
2019-03-27 11:00:00 10.7 6 Nordeste 22 Este 0 934.9 0.2 50
2019-03-27 10:00:00 8.7 7 Este 14 Este 0 935.1 1 58
2019-03-27 09:00:00 5.8 8 Este 13 Este 0 935 1.5 66
2019-03-27 08:00:00 2.8 5 Nordeste 12 Nordeste 0 934.7 1.5 70
2019-03-27 07:00:00 2.3 4 Este 15 Este 0 934.1 1.1 66
2019-03-27 06:00:00 2.9 5 Este 17 Nordeste 0 933.5 0.8 61
2019-03-27 05:00:00 3.3 5 Este 19 Nordeste 0 933.2 0.6 55
2019-03-27 04:00:00 4.2 7 Nordeste 25 Nordeste 0 933 0.4 50
2019-03-27 03:00:00 5.4 9 Nordeste 23 Nordeste 0 932.7 0.2 44
2019-03-27 02:00:00 5.5 7 Nordeste 18 Nordeste 0 932.6 0.9 40
2019-03-27 01:00:00 6.5 10 Nordeste 25 Nordeste 0 932.6 1.5 37
2019-03-27 00:00:00 7.7 10 Este 23 Este 0 932.5 2.4 35
2019-03-26 23:00:00 9 9 Nordeste 22 Nordeste 0 931.7 2.4 33
2019-03-26 22:00:00 10.8 9 Este 42 Nordeste 0 931.1 2.3 32
2019-03-26 21:00:00 12.8 10 Nordeste 36 Nordeste 0 930.1 1.9 29
2019-03-26 20:00:00 15.2 13 Nordeste 35 Nordeste 0 929.3 1 28
2019-03-26 19:00:00 18.2 15 Nordeste 35 Nordeste 0 928.8 0 27
2019-03-26 18:00:00 19.9 13 Nordeste 36 Nordeste 0 928.2 -1 26
2019-03-26 17:00:00 20.2 14 Nordeste 36 Nordeste 0 928.3 -1.5 27
2019-03-26 16:00:00 19.5 14 Nordeste 35 Nordeste 0 928.8 -1.3 29
2019-03-26 15:00:00 18.6 12 Nordeste 33 Nordeste 0 929.2 -1.4 33
2019-03-26 14:00:00 16.7 12 Nordeste 33 Nordeste 0 929.8 -1.4 37
2019-03-26 13:00:00 14.9 12 Nordeste 37 Nordeste 0 930.1 -1.5 42
2019-03-26 12:00:00 12.3 16 Nordeste 37 Este 0 930.6 -1.1 47
2019-03-26 11:00:00 9.9 17 Nordeste 37 Nordeste 0 931.2 -0.9 56
2019-03-26 10:00:00 7.5 13 Nordeste 35 Nordeste 0 931.6 -0.2 67
2019-03-26 09:00:00 4.9 7 Este 19 Nordeste 0 931.7 0 82
2019-03-26 08:00:00 1.6 8 Este 17 Este 0 932.1 0.2 89
2019-03-26 07:00:00 1.9 8 Nordeste 18 Nordeste 0 931.8 -0.3 86
2019-03-26 06:00:00 1.8 6 Nordeste 18 Este 0 931.7 -0.7 81
2019-03-26 05:00:00 2.6 7 Nordeste 20 Nordeste 0 931.9 -0.6 75
2019-03-26 04:00:00 3.1 10 Nordeste 24 Este 0 932.1 -0.7 71
2019-03-26 03:00:00 3.8 8 Nordeste 25 Nordeste 0 932.4 -0.2 66
2019-03-26 02:00:00 5 10 Nordeste 30 Este 0 932.5 0.1 62
2019-03-26 01:00:00 6.2 13 Nordeste 36 Nordeste 0 932.8 0.8 59
2019-03-26 00:00:00 7.1 15 Nordeste 30 Este 0 932.6 1.1 57
2019-03-25 23:00:00 8.3 9 Nordeste 22 Nordeste 0 932.4 1.4 57
2019-03-25 22:00:00 9.8 9 Nordeste 21 Norte 0 932 1.3 52
2019-03-25 21:00:00 11.1 11 Nordeste 26 Norte 0 931.5 0.8 50
2019-03-25 20:00:00 13 9 Nordeste 24 Nordeste 0 931 0.1 42
2019-03-25 19:00:00 15.5 10 Nordeste 28 Nordeste 0 930.7 -0.1 36
2019-03-25 18:00:00 17.4 11 Nordeste 31 Nordeste 0 930.7 -0.8 33
2019-03-25 17:00:00 17.9 13 Nordeste 33 Nordeste 0 930.9 -1.6 31
2019-03-25 16:00:00 18.5 15 Nordeste 33 Norte 0 930.8 -2.5 34
2019-03-25 15:00:00 18.5 13 Nordeste 31 Nordeste 0 931.5 -2.3 40
2019-03-25 14:00:00 17.6 7 Nordeste 27 Nordeste 0 932.5 -1.7 44
2019-03-25 13:00:00 16.3 13 Nordeste 30 Nordeste 0 933.3 -1.1 47
2019-03-25 12:00:00 14.9 13 Nordeste 30 Nordeste 0 933.8 -0.2 53
2019-03-25 11:00:00 12.6 11 Nordeste 26 Este 0 934.2 0.2 58
2019-03-25 10:00:00 11 8 Este 19 Nordeste 0 934.4 0.6 61
2019-03-25 09:00:00 8.3 5 Este 13 Nordeste 0 934 0.7 70
2019-03-25 08:00:00 5.4 3 Este 13 Nordeste 0 934 0.9 77
2019-03-25 07:00:00 5.8 3 Nordeste 9 Este 0 933.8 0.3 73
2019-03-25 06:00:00 6.4 4 Este 10 Este 0 933.3 -0.3 69
2019-03-25 05:00:00 7.1 4 Este 12 Nordeste 0 933.1 -0.7 66
2019-03-25 04:00:00 8.4 3 Nordeste 15 Nordeste 0 933.5 -0.3 62
2019-03-25 03:00:00 9.7 5 Nordeste 18 Nordeste 0 933.6 -0.2 59
2019-03-25 02:00:00 10.2 10 Nordeste 17 Nordeste 0 933.8 0.2 57
2019-03-25 01:00:00 11.6 6 Nordeste 19 Nordeste 0 933.8 0.4 53
2019-03-25 00:00:00 12 9 Nordeste 19 Nordeste 0 933.8 1 49